sensor_id;sensor_type;location;lat;lon;timestamp;P1;durP1;ratioP1;P2;durP2;ratioP2
41099;SDS011;26844;53.686;-6.346;2022-12-07T00:00:27;66.00;;;62.70;;
41099;SDS011;26844;53.686;-6.346;2022-12-07T00:02:52;64.47;;;61.47;;
41099;SDS011;26844;53.686;-6.346;2022-12-07T00:05:17;71.85;;;68.47;;
41099;SDS011;26844;53.686;-6.346;2022-12-07T00:07:42;59.28;;;56.40;;
41099;SDS011;26844;53.686;-6.346;2022-12-07T00:10:07;75.68;;;72.15;;
41099;SDS011;26844;53.686;-6.346;2022-12-07T00:12:33;81.47;;;77.60;;
41099;SDS011;26844;53.686;-6.346;2022-12-07T00:14:58;44.00;;;41.67;;
41099;SDS011;26844;53.686;-6.346;2022-12-07T00:17:23;42.60;;;40.40;;
41099;SDS011;26844;53.686;-6.346;2022-12-07T00:19:48;52.78;;;49.95;;
41099;SDS011;26844;53.686;-6.346;2022-12-07T00:22:14;54.00;;;51.28;;
41099;SDS011;26844;53.686;-6.346;2022-12-07T00:24:39;52.30;;;49.50;;
41099;SDS011;26844;53.686;-6.346;2022-12-07T00:27:04;36.85;;;34.85;;
41099;SDS011;26844;53.686;-6.346;2022-12-07T00:29:29;47.67;;;45.42;;
41099;SDS011;26844;53.686;-6.346;2022-12-07T00:31:54;49.40;;;47.13;;
41099;SDS011;26844;53.686;-6.346;2022-12-07T00:34:20;60.28;;;57.33;;
41099;SDS011;26844;53.686;-6.346;2022-12-07T00:36:46;40.35;;;38.28;;
41099;SDS011;26844;53.686;-6.346;2022-12-07T00:39:11;48.22;;;45.67;;
41099;SDS011;26844;53.686;-6.346;2022-12-07T00:41:36;46.10;;;43.53;;
41099;SDS011;26844;53.686;-6.346;2022-12-07T00:44:02;44.53;;;42.15;;
41099;SDS011;26844;53.686;-6.346;2022-12-07T00:46:27;67.18;;;63.65;;
41099;SDS011;26844;53.686;-6.346;2022-12-07T00:48:52;77.75;;;74.13;;
41099;SDS011;26844;53.686;-6.346;2022-12-07T00:51:20;75.63;;;71.78;;
41099;SDS011;26844;53.686;-6.346;2022-12-07T00:53:45;56.15;;;53.53;;
41099;SDS011;26844;53.686;-6.346;2022-12-07T00:56:12;79.28;;;75.65;;
41099;SDS011;26844;53.686;-6.346;2022-12-07T00:58:37;77.57;;;74.10;;
41099;SDS011;26844;53.686;-6.346;2022-12-07T01:01:04;56.78;;;54.13;;
41099;SDS011;26844;53.686;-6.346;2022-12-07T01:03:29;82.20;;;78.35;;
41099;SDS011;26844;53.686;-6.346;2022-12-07T01:05:55;73.50;;;70.03;;
41099;SDS011;26844;53.686;-6.346;2022-12-07T01:08:21;71.70;;;68.22;;
41099;SDS011;26844;53.686;-6.346;2022-12-07T01:10:46;90.72;;;86.20;;
41099;SDS011;26844;53.686;-6.346;2022-12-07T01:13:11;55.92;;;52.83;;
41099;SDS011;26844;53.686;-6.346;2022-12-07T01:15:43;72.53;;;68.55;;
41099;SDS011;26844;53.686;-6.346;2022-12-07T01:18:09;71.85;;;68.18;;
41099;SDS011;26844;53.686;-6.346;2022-12-07T01:20:34;57.75;;;54.72;;
41099;SDS011;26844;53.686;-6.346;2022-12-07T01:23:00;66.10;;;62.88;;
41099;SDS011;26844;53.686;-6.346;2022-12-07T01:25:25;69.82;;;66.65;;
41099;SDS011;26844;53.686;-6.346;2022-12-07T01:27:50;79.55;;;75.80;;
41099;SDS011;26844;53.686;-6.346;2022-12-07T01:30:15;56.05;;;53.17;;
41099;SDS011;26844;53.686;-6.346;2022-12-07T01:32:41;63.15;;;60.20;;
41099;SDS011;26844;53.686;-6.346;2022-12-07T01:35:06;63.42;;;60.28;;
41099;SDS011;26844;53.686;-6.346;2022-12-07T01:37:35;55.70;;;52.97;;
41099;SDS011;26844;53.686;-6.346;2022-12-07T01:40:01;46.35;;;43.83;;
41099;SDS011;26844;53.686;-6.346;2022-12-07T01:42:27;52.10;;;49.67;;
41099;SDS011;26844;53.686;-6.346;2022-12-07T01:47:37;50.85;;;48.15;;
41099;SDS011;26844;53.686;-6.346;2022-12-07T01:50:02;60.30;;;57.13;;
41099;SDS011;26844;53.686;-6.346;2022-12-07T01:52:31;53.75;;;50.85;;
41099;SDS011;26844;53.686;-6.346;2022-12-07T01:55:02;67.35;;;64.30;;
41099;SDS011;26844;53.686;-6.346;2022-12-07T01:57:28;48.38;;;45.95;;
41099;SDS011;26844;53.686;-6.346;2022-12-07T01:59:54;50.65;;;48.25;;
41099;SDS011;26844;53.686;-6.346;2022-12-07T02:02:30;29.52;;;27.75;;
41099;SDS011;26844;53.686;-6.346;2022-12-07T02:04:57;29.75;;;28.08;;
41099;SDS011;26844;53.686;-6.346;2022-12-07T02:07:24;30.60;;;29.00;;
41099;SDS011;26844;53.686;-6.346;2022-12-07T02:09:50;25.98;;;24.73;;
41099;SDS011;26844;53.686;-6.346;2022-12-07T02:12:15;22.20;;;20.88;;
41099;SDS011;26844;53.686;-6.346;2022-12-07T02:14:41;27.70;;;25.88;;
41099;SDS011;26844;53.686;-6.346;2022-12-07T02:17:26;26.88;;;25.30;;
41099;SDS011;26844;53.686;-6.346;2022-12-07T02:20:03;29.33;;;27.77;;
41099;SDS011;26844;53.686;-6.346;2022-12-07T02:30:12;30.60;;;29.00;;
41099;SDS011;26844;53.686;-6.346;2022-12-07T02:32:40;34.55;;;32.50;;
41099;SDS011;26844;53.686;-6.346;2022-12-07T02:37:37;29.05;;;27.63;;
41099;SDS011;26844;53.686;-6.346;2022-12-07T02:42:35;25.65;;;24.33;;
41099;SDS011;26844;53.686;-6.346;2022-12-07T02:45:01;27.85;;;26.40;;
41099;SDS011;26844;53.686;-6.346;2022-12-07T02:47:27;26.33;;;24.95;;
41099;SDS011;26844;53.686;-6.346;2022-12-07T02:49:53;24.95;;;23.67;;
41099;SDS011;26844;53.686;-6.346;2022-12-07T02:52:19;28.98;;;27.20;;
41099;SDS011;26844;53.686;-6.346;2022-12-07T02:54:44;30.67;;;29.08;;
41099;SDS011;26844;53.686;-6.346;2022-12-07T02:57:31;25.15;;;23.67;;
41099;SDS011;26844;53.686;-6.346;2022-12-07T03:07:21;25.80;;;24.52;;
41099;SDS011;26844;53.686;-6.346;2022-12-07T03:12:29;31.83;;;30.27;;
41099;SDS011;26844;53.686;-6.346;2022-12-07T03:15:01;35.65;;;33.60;;
41099;SDS011;26844;53.686;-6.346;2022-12-07T03:17:30;30.70;;;28.80;;
41099;SDS011;26844;53.686;-6.346;2022-12-07T03:19:58;32.05;;;30.35;;
41099;SDS011;26844;53.686;-6.346;2022-12-07T03:22:24;29.50;;;27.30;;
41099;SDS011;26844;53.686;-6.346;2022-12-07T03:24:54;35.45;;;33.78;;
41099;SDS011;26844;53.686;-6.346;2022-12-07T03:27:23;28.60;;;27.13;;
41099;SDS011;26844;53.686;-6.346;2022-12-07T03:30:03;21.85;;;20.75;;
41099;SDS011;26844;53.686;-6.346;2022-12-07T03:32:33;29.00;;;27.65;;
41099;SDS011;26844;53.686;-6.346;2022-12-07T03:35:02;33.97;;;32.20;;
41099;SDS011;26844;53.686;-6.346;2022-12-07T03:40:14;36.67;;;35.00;;
41099;SDS011;26844;53.686;-6.346;2022-12-07T03:42:41;39.63;;;37.72;;
41099;SDS011;26844;53.686;-6.346;2022-12-07T03:45:07;34.17;;;32.50;;
41099;SDS011;26844;53.686;-6.346;2022-12-07T03:47:33;50.55;;;48.05;;
41099;SDS011;26844;53.686;-6.346;2022-12-07T03:50:07;58.03;;;55.28;;
41099;SDS011;26844;53.686;-6.346;2022-12-07T03:52:38;48.05;;;45.47;;
41099;SDS011;26844;53.686;-6.346;2022-12-07T03:55:24;55.78;;;52.55;;
41099;SDS011;26844;53.686;-6.346;2022-12-07T03:57:52;88.10;;;83.88;;
41099;SDS011;26844;53.686;-6.346;2022-12-07T04:00:18;70.68;;;67.30;;
41099;SDS011;26844;53.686;-6.346;2022-12-07T04:02:44;58.28;;;55.40;;
41099;SDS011;26844;53.686;-6.346;2022-12-07T04:05:09;59.15;;;56.42;;
41099;SDS011;26844;53.686;-6.346;2022-12-07T04:07:35;63.67;;;60.83;;
41099;SDS011;26844;53.686;-6.346;2022-12-07T04:10:00;75.22;;;71.57;;
41099;SDS011;26844;53.686;-6.346;2022-12-07T04:12:25;65.50;;;62.45;;
41099;SDS011;26844;53.686;-6.346;2022-12-07T04:14:50;75.93;;;72.35;;
41099;SDS011;26844;53.686;-6.346;2022-12-07T04:17:16;45.58;;;43.40;;
41099;SDS011;26844;53.686;-6.346;2022-12-07T04:19:41;65.55;;;62.42;;
41099;SDS011;26844;53.686;-6.346;2022-12-07T04:22:06;77.78;;;74.05;;
41099;SDS011;26844;53.686;-6.346;2022-12-07T04:24:31;54.50;;;51.90;;
41099;SDS011;26844;53.686;-6.346;2022-12-07T04:26:57;80.38;;;75.95;;
41099;SDS011;26844;53.686;-6.346;2022-12-07T04:29:22;61.28;;;57.85;;
41099;SDS011;26844;53.686;-6.346;2022-12-07T04:31:47;51.15;;;48.58;;
41099;SDS011;26844;53.686;-6.346;2022-12-07T04:34:13;70.38;;;67.00;;
41099;SDS011;26844;53.686;-6.346;2022-12-07T04:36:38;65.78;;;62.75;;
41099;SDS011;26844;53.686;-6.346;2022-12-07T04:39:04;56.20;;;53.25;;
41099;SDS011;26844;53.686;-6.346;2022-12-07T04:41:30;40.72;;;38.78;;
41099;SDS011;26844;53.686;-6.346;2022-12-07T04:43:56;51.00;;;48.25;;
41099;SDS011;26844;53.686;-6.346;2022-12-07T04:46:22;49.50;;;47.13;;
41099;SDS011;26844;53.686;-6.346;2022-12-07T04:48:47;62.80;;;59.70;;
41099;SDS011;26844;53.686;-6.346;2022-12-07T04:51:14;37.78;;;35.90;;
41099;SDS011;26844;53.686;-6.346;2022-12-07T04:53:40;52.92;;;50.20;;
41099;SDS011;26844;53.686;-6.346;2022-12-07T04:56:05;65.10;;;62.05;;
41099;SDS011;26844;53.686;-6.346;2022-12-07T04:58:31;46.88;;;44.42;;
41099;SDS011;26844;53.686;-6.346;2022-12-07T05:00:56;76.47;;;72.75;;
41099;SDS011;26844;53.686;-6.346;2022-12-07T05:03:21;49.00;;;46.70;;
41099;SDS011;26844;53.686;-6.346;2022-12-07T05:05:47;63.22;;;60.35;;
41099;SDS011;26844;53.686;-6.346;2022-12-07T05:08:12;60.97;;;58.10;;
41099;SDS011;26844;53.686;-6.346;2022-12-07T05:10:37;71.47;;;67.95;;
41099;SDS011;26844;53.686;-6.346;2022-12-07T05:13:02;80.63;;;76.97;;
41099;SDS011;26844;53.686;-6.346;2022-12-07T05:15:27;74.07;;;70.72;;
41099;SDS011;26844;53.686;-6.346;2022-12-07T05:17:53;53.30;;;50.63;;
41099;SDS011;26844;53.686;-6.346;2022-12-07T05:20:18;63.03;;;59.83;;
41099;SDS011;26844;53.686;-6.346;2022-12-07T05:22:43;87.30;;;83.43;;
41099;SDS011;26844;53.686;-6.346;2022-12-07T05:25:08;61.70;;;58.88;;
41099;SDS011;26844;53.686;-6.346;2022-12-07T05:27:34;72.22;;;68.68;;
41099;SDS011;26844;53.686;-6.346;2022-12-07T05:29:59;71.45;;;68.10;;
41099;SDS011;26844;53.686;-6.346;2022-12-07T05:32:24;77.32;;;73.78;;
41099;SDS011;26844;53.686;-6.346;2022-12-07T05:34:49;67.35;;;64.30;;
41099;SDS011;26844;53.686;-6.346;2022-12-07T05:37:15;52.00;;;49.63;;
41099;SDS011;26844;53.686;-6.346;2022-12-07T05:39:40;57.15;;;54.53;;
41099;SDS011;26844;53.686;-6.346;2022-12-07T05:42:08;70.13;;;66.97;;
41099;SDS011;26844;53.686;-6.346;2022-12-07T05:44:43;61.28;;;58.45;;
41099;SDS011;26844;53.686;-6.346;2022-12-07T05:47:09;70.13;;;66.95;;
41099;SDS011;26844;53.686;-6.346;2022-12-07T05:49:34;79.05;;;75.13;;
41099;SDS011;26844;53.686;-6.346;2022-12-07T05:51:59;63.92;;;60.75;;
41099;SDS011;26844;53.686;-6.346;2022-12-07T05:54:25;61.53;;;58.78;;
41099;SDS011;26844;53.686;-6.346;2022-12-07T05:56:50;85.78;;;81.97;;
41099;SDS011;26844;53.686;-6.346;2022-12-07T05:59:15;75.25;;;71.90;;
41099;SDS011;26844;53.686;-6.346;2022-12-07T06:01:59;93.80;;;89.07;;
41099;SDS011;26844;53.686;-6.346;2022-12-07T06:04:25;69.15;;;65.95;;
41099;SDS011;26844;53.686;-6.346;2022-12-07T06:06:51;89.43;;;85.30;;
41099;SDS011;26844;53.686;-6.346;2022-12-07T06:09:17;93.63;;;89.47;;
41099;SDS011;26844;53.686;-6.346;2022-12-07T06:11:43;62.65;;;59.72;;
41099;SDS011;26844;53.686;-6.346;2022-12-07T06:14:27;95.35;;;90.65;;
41099;SDS011;26844;53.686;-6.346;2022-12-07T06:16:53;70.57;;;67.30;;
41099;SDS011;26844;53.686;-6.346;2022-12-07T06:19:18;95.13;;;90.45;;
41099;SDS011;26844;53.686;-6.346;2022-12-07T06:21:43;88.15;;;84.07;;
41099;SDS011;26844;53.686;-6.346;2022-12-07T06:24:09;83.55;;;79.60;;
41099;SDS011;26844;53.686;-6.346;2022-12-07T06:26:35;77.80;;;74.28;;
41099;SDS011;26844;53.686;-6.346;2022-12-07T06:29:01;80.82;;;77.18;;
41099;SDS011;26844;53.686;-6.346;2022-12-07T06:31:26;87.00;;;83.13;;
41099;SDS011;26844;53.686;-6.346;2022-12-07T06:33:51;79.80;;;76.15;;
41099;SDS011;26844;53.686;-6.346;2022-12-07T06:36:16;80.43;;;76.85;;
41099;SDS011;26844;53.686;-6.346;2022-12-07T06:38:42;76.28;;;72.97;;
41099;SDS011;26844;53.686;-6.346;2022-12-07T06:41:07;79.93;;;76.38;;
41099;SDS011;26844;53.686;-6.346;2022-12-07T06:43:32;110.20;;;105.40;;
41099;SDS011;26844;53.686;-6.346;2022-12-07T06:45:57;115.45;;;110.10;;
41099;SDS011;26844;53.686;-6.346;2022-12-07T06:48:23;100.10;;;95.25;;
41099;SDS011;26844;53.686;-6.346;2022-12-07T06:50:48;79.45;;;75.60;;
41099;SDS011;26844;53.686;-6.346;2022-12-07T06:53:13;96.80;;;92.53;;
41099;SDS011;26844;53.686;-6.346;2022-12-07T06:55:39;101.38;;;96.50;;
41099;SDS011;26844;53.686;-6.346;2022-12-07T06:58:04;90.93;;;86.85;;
41099;SDS011;26844;53.686;-6.346;2022-12-07T07:00:29;92.40;;;88.28;;
41099;SDS011;26844;53.686;-6.346;2022-12-07T07:02:55;100.43;;;95.80;;
41099;SDS011;26844;53.686;-6.346;2022-12-07T07:05:20;82.82;;;79.13;;
41099;SDS011;26844;53.686;-6.346;2022-12-07T07:07:47;93.28;;;89.05;;
41099;SDS011;26844;53.686;-6.346;2022-12-07T07:10:12;119.20;;;113.97;;
41099;SDS011;26844;53.686;-6.346;2022-12-07T07:12:38;95.72;;;91.50;;
41099;SDS011;26844;53.686;-6.346;2022-12-07T07:15:03;151.60;;;144.57;;
41099;SDS011;26844;53.686;-6.346;2022-12-07T07:17:28;135.90;;;130.00;;
41099;SDS011;26844;53.686;-6.346;2022-12-07T07:19:54;107.43;;;102.57;;
41099;SDS011;26844;53.686;-6.346;2022-12-07T07:22:19;158.10;;;150.77;;
41099;SDS011;26844;53.686;-6.346;2022-12-07T07:24:45;138.90;;;132.73;;
41099;SDS011;26844;53.686;-6.346;2022-12-07T07:27:10;121.68;;;116.22;;
41099;SDS011;26844;53.686;-6.346;2022-12-07T07:29:35;151.10;;;144.27;;
41099;SDS011;26844;53.686;-6.346;2022-12-07T07:32:00;124.82;;;119.10;;
41099;SDS011;26844;53.686;-6.346;2022-12-07T07:34:26;108.93;;;103.90;;
41099;SDS011;26844;53.686;-6.346;2022-12-07T07:36:51;136.85;;;130.65;;
41099;SDS011;26844;53.686;-6.346;2022-12-07T07:39:16;84.63;;;80.80;;
41099;SDS011;26844;53.686;-6.346;2022-12-07T07:41:42;109.07;;;104.00;;
41099;SDS011;26844;53.686;-6.346;2022-12-07T07:44:07;83.03;;;79.28;;
41099;SDS011;26844;53.686;-6.346;2022-12-07T07:46:32;84.00;;;80.28;;
41099;SDS011;26844;53.686;-6.346;2022-12-07T07:48:58;89.15;;;85.18;;
41099;SDS011;26844;53.686;-6.346;2022-12-07T07:51:23;76.47;;;72.72;;
41099;SDS011;26844;53.686;-6.346;2022-12-07T07:53:48;69.00;;;65.90;;
41099;SDS011;26844;53.686;-6.346;2022-12-07T07:56:13;69.28;;;65.90;;
41099;SDS011;26844;53.686;-6.346;2022-12-07T07:58:39;87.00;;;83.18;;
41099;SDS011;26844;53.686;-6.346;2022-12-07T08:01:05;88.88;;;84.85;;
41099;SDS011;26844;53.686;-6.346;2022-12-07T08:03:30;59.05;;;55.67;;
41099;SDS011;26844;53.686;-6.346;2022-12-07T08:05:55;90.70;;;86.53;;
41099;SDS011;26844;53.686;-6.346;2022-12-07T08:08:21;97.43;;;92.78;;
41099;SDS011;26844;53.686;-6.346;2022-12-07T08:10:46;104.38;;;99.43;;
41099;SDS011;26844;53.686;-6.346;2022-12-07T08:13:11;76.18;;;72.47;;
41099;SDS011;26844;53.686;-6.346;2022-12-07T08:15:37;78.88;;;75.22;;
41099;SDS011;26844;53.686;-6.346;2022-12-07T08:18:03;121.55;;;115.93;;
41099;SDS011;26844;53.686;-6.346;2022-12-07T08:20:29;113.28;;;108.03;;
41099;SDS011;26844;53.686;-6.346;2022-12-07T08:22:55;121.03;;;115.72;;
41099;SDS011;26844;53.686;-6.346;2022-12-07T08:25:20;95.07;;;90.53;;
41099;SDS011;26844;53.686;-6.346;2022-12-07T08:27:47;131.93;;;126.00;;
41099;SDS011;26844;53.686;-6.346;2022-12-07T08:30:12;143.57;;;137.27;;
41099;SDS011;26844;53.686;-6.346;2022-12-07T08:32:37;115.10;;;110.00;;
41099;SDS011;26844;53.686;-6.346;2022-12-07T08:35:03;108.22;;;103.30;;
41099;SDS011;26844;53.686;-6.346;2022-12-07T08:37:28;100.85;;;96.38;;
41099;SDS011;26844;53.686;-6.346;2022-12-07T08:39:53;89.82;;;85.55;;
41099;SDS011;26844;53.686;-6.346;2022-12-07T08:42:19;99.60;;;95.05;;
41099;SDS011;26844;53.686;-6.346;2022-12-07T08:44:45;132.05;;;126.13;;
41099;SDS011;26844;53.686;-6.346;2022-12-07T08:47:10;139.70;;;133.20;;
41099;SDS011;26844;53.686;-6.346;2022-12-07T08:49:37;96.82;;;92.38;;
41099;SDS011;26844;53.686;-6.346;2022-12-07T08:52:04;124.10;;;118.43;;
41099;SDS011;26844;53.686;-6.346;2022-12-07T08:54:29;125.80;;;120.25;;
41099;SDS011;26844;53.686;-6.346;2022-12-07T08:56:55;75.07;;;71.45;;
41099;SDS011;26844;53.686;-6.346;2022-12-07T08:59:21;122.22;;;116.68;;
41099;SDS011;26844;53.686;-6.346;2022-12-07T09:01:46;92.93;;;88.72;;
41099;SDS011;26844;53.686;-6.346;2022-12-07T09:04:12;94.80;;;90.53;;
41099;SDS011;26844;53.686;-6.346;2022-12-07T09:06:37;74.05;;;70.50;;
41099;SDS011;26844;53.686;-6.346;2022-12-07T09:09:02;84.35;;;80.63;;
41099;SDS011;26844;53.686;-6.346;2022-12-07T09:11:28;91.45;;;87.35;;
41099;SDS011;26844;53.686;-6.346;2022-12-07T09:13:54;66.93;;;63.92;;
41099;SDS011;26844;53.686;-6.346;2022-12-07T09:16:19;74.85;;;71.25;;
41099;SDS011;26844;53.686;-6.346;2022-12-07T09:18:44;63.10;;;60.33;;
41099;SDS011;26844;53.686;-6.346;2022-12-07T09:21:10;74.28;;;70.85;;
41099;SDS011;26844;53.686;-6.346;2022-12-07T09:23:35;88.63;;;84.63;;
41099;SDS011;26844;53.686;-6.346;2022-12-07T09:26:00;68.05;;;64.65;;
41099;SDS011;26844;53.686;-6.346;2022-12-07T09:28:26;66.55;;;63.60;;
41099;SDS011;26844;53.686;-6.346;2022-12-07T09:30:51;60.00;;;57.13;;
41099;SDS011;26844;53.686;-6.346;2022-12-07T09:33:17;72.28;;;69.05;;
41099;SDS011;26844;53.686;-6.346;2022-12-07T09:35:45;63.33;;;60.40;;
41099;SDS011;26844;53.686;-6.346;2022-12-07T09:38:11;47.97;;;45.72;;
41099;SDS011;26844;53.686;-6.346;2022-12-07T09:40:37;48.30;;;45.95;;
41099;SDS011;26844;53.686;-6.346;2022-12-07T09:43:02;45.00;;;42.75;;
41099;SDS011;26844;53.686;-6.346;2022-12-07T09:45:34;40.63;;;38.40;;
41099;SDS011;26844;53.686;-6.346;2022-12-07T09:48:00;43.42;;;41.45;;
41099;SDS011;26844;53.686;-6.346;2022-12-07T09:50:26;46.03;;;43.88;;
41099;SDS011;26844;53.686;-6.346;2022-12-07T09:52:52;43.53;;;41.38;;
41099;SDS011;26844;53.686;-6.346;2022-12-07T09:55:26;37.10;;;35.40;;
41099;SDS011;26844;53.686;-6.346;2022-12-07T09:57:52;28.20;;;26.95;;
41099;SDS011;26844;53.686;-6.346;2022-12-07T10:00:19;35.53;;;33.65;;
41099;SDS011;26844;53.686;-6.346;2022-12-07T10:02:47;39.63;;;37.50;;
41099;SDS011;26844;53.686;-6.346;2022-12-07T10:05:18;31.70;;;30.15;;
41099;SDS011;26844;53.686;-6.346;2022-12-07T10:07:45;41.05;;;39.20;;
41099;SDS011;26844;53.686;-6.346;2022-12-07T10:10:33;35.42;;;33.88;;
41099;SDS011;26844;53.686;-6.346;2022-12-07T10:13:04;27.45;;;26.25;;
41099;SDS011;26844;53.686;-6.346;2022-12-07T10:20:50;34.33;;;32.38;;
41099;SDS011;26844;53.686;-6.346;2022-12-07T10:23:24;29.05;;;27.33;;
41099;SDS011;26844;53.686;-6.346;2022-12-07T10:25:49;33.22;;;31.67;;
41099;SDS011;26844;53.686;-6.346;2022-12-07T10:28:19;21.35;;;20.25;;
41099;SDS011;26844;53.686;-6.346;2022-12-07T10:33:32;22.30;;;21.20;;
41099;SDS011;26844;53.686;-6.346;2022-12-07T10:35:58;26.60;;;24.70;;
41099;SDS011;26844;53.686;-6.346;2022-12-07T10:38:24;18.33;;;17.38;;
41099;SDS011;26844;53.686;-6.346;2022-12-07T10:40:52;23.15;;;21.80;;
41099;SDS011;26844;53.686;-6.346;2022-12-07T10:43:27;16.55;;;15.68;;
41099;SDS011;26844;53.686;-6.346;2022-12-07T10:48:27;18.63;;;17.60;;
41099;SDS011;26844;53.686;-6.346;2022-12-07T10:51:17;18.17;;;17.33;;
41099;SDS011;26844;53.686;-6.346;2022-12-07T11:11:55;21.73;;;20.50;;
41099;SDS011;26844;53.686;-6.346;2022-12-07T11:14:40;26.23;;;25.10;;
41099;SDS011;26844;53.686;-6.346;2022-12-07T11:17:18;31.08;;;29.17;;
41099;SDS011;26844;53.686;-6.346;2022-12-07T11:19:54;32.65;;;31.05;;
41099;SDS011;26844;53.686;-6.346;2022-12-07T11:25:31;26.98;;;25.23;;
41099;SDS011;26844;53.686;-6.346;2022-12-07T11:28:08;37.70;;;35.97;;
41099;SDS011;26844;53.686;-6.346;2022-12-07T11:33:33;49.15;;;46.85;;
41099;SDS011;26844;53.686;-6.346;2022-12-07T11:36:08;60.40;;;57.70;;
41099;SDS011;26844;53.686;-6.346;2022-12-07T11:38:42;63.53;;;60.67;;
41099;SDS011;26844;53.686;-6.346;2022-12-07T11:41:08;61.28;;;58.38;;
41099;SDS011;26844;53.686;-6.346;2022-12-07T11:43:49;95.88;;;91.63;;
41099;SDS011;26844;53.686;-6.346;2022-12-07T11:46:15;78.38;;;74.90;;
41099;SDS011;26844;53.686;-6.346;2022-12-07T11:48:43;54.22;;;51.42;;
41099;SDS011;26844;53.686;-6.346;2022-12-07T11:51:10;58.47;;;55.85;;
41099;SDS011;26844;53.686;-6.346;2022-12-07T11:53:41;60.47;;;57.75;;
41099;SDS011;26844;53.686;-6.346;2022-12-07T11:56:16;68.25;;;65.20;;
41099;SDS011;26844;53.686;-6.346;2022-12-07T11:58:55;60.45;;;57.33;;
41099;SDS011;26844;53.686;-6.346;2022-12-07T12:03:58;58.80;;;56.05;;
41099;SDS011;26844;53.686;-6.346;2022-12-07T12:06:25;37.28;;;35.67;;
41099;SDS011;26844;53.686;-6.346;2022-12-07T12:21:36;12.00;;;11.30;;
41099;SDS011;26844;53.686;-6.346;2022-12-07T12:24:03;16.25;;;15.40;;
41099;SDS011;26844;53.686;-6.346;2022-12-07T12:26:31;16.60;;;15.80;;
41099;SDS011;26844;53.686;-6.346;2022-12-07T12:36:20;11.20;;;10.70;;
41099;SDS011;26844;53.686;-6.346;2022-12-07T12:46:46;10.80;;;10.05;;
41099;SDS011;26844;53.686;-6.346;2022-12-07T12:51:56;11.07;;;10.45;;
41099;SDS011;26844;53.686;-6.346;2022-12-07T12:54:26;14.55;;;13.65;;
41099;SDS011;26844;53.686;-6.346;2022-12-07T13:07:13;15.07;;;14.30;;
41099;SDS011;26844;53.686;-6.346;2022-12-07T13:09:56;14.05;;;13.30;;
41099;SDS011;26844;53.686;-6.346;2022-12-07T13:12:21;12.30;;;11.70;;
41099;SDS011;26844;53.686;-6.346;2022-12-07T13:20:02;10.90;;;10.25;;
41099;SDS011;26844;53.686;-6.346;2022-12-07T13:24:56;22.05;;;20.95;;
41099;SDS011;26844;53.686;-6.346;2022-12-07T13:27:21;37.75;;;36.10;;
41099;SDS011;26844;53.686;-6.346;2022-12-07T13:29:47;31.65;;;29.95;;
41099;SDS011;26844;53.686;-6.346;2022-12-07T13:37:51;27.23;;;26.05;;
41099;SDS011;26844;53.686;-6.346;2022-12-07T13:40:17;32.40;;;30.85;;
41099;SDS011;26844;53.686;-6.346;2022-12-07T13:42:44;31.03;;;29.63;;
41099;SDS011;26844;53.686;-6.346;2022-12-07T13:45:32;28.73;;;27.42;;
41099;SDS011;26844;53.686;-6.346;2022-12-07T13:50:56;25.88;;;24.48;;
41099;SDS011;26844;53.686;-6.346;2022-12-07T13:53:22;34.13;;;32.53;;
41099;SDS011;26844;53.686;-6.346;2022-12-07T13:55:47;24.35;;;23.25;;
41099;SDS011;26844;53.686;-6.346;2022-12-07T13:58:13;28.60;;;27.33;;
41099;SDS011;26844;53.686;-6.346;2022-12-07T14:00:39;28.48;;;27.17;;
41099;SDS011;26844;53.686;-6.346;2022-12-07T14:03:22;26.52;;;25.20;;
41099;SDS011;26844;53.686;-6.346;2022-12-07T14:06:02;24.27;;;23.02;;
41099;SDS011;26844;53.686;-6.346;2022-12-07T14:08:29;29.83;;;28.52;;
41099;SDS011;26844;53.686;-6.346;2022-12-07T14:10:55;26.65;;;25.27;;
41099;SDS011;26844;53.686;-6.346;2022-12-07T14:13:27;31.33;;;29.80;;
41099;SDS011;26844;53.686;-6.346;2022-12-07T14:15:53;28.38;;;27.08;;
41099;SDS011;26844;53.686;-6.346;2022-12-07T14:18:26;30.35;;;28.70;;
41099;SDS011;26844;53.686;-6.346;2022-12-07T14:21:02;29.67;;;28.30;;
41099;SDS011;26844;53.686;-6.346;2022-12-07T14:23:38;42.42;;;40.58;;
41099;SDS011;26844;53.686;-6.346;2022-12-07T14:26:24;26.55;;;24.92;;
41099;SDS011;26844;53.686;-6.346;2022-12-07T14:28:49;22.35;;;21.30;;
41099;SDS011;26844;53.686;-6.346;2022-12-07T14:31:15;23.95;;;22.85;;
41099;SDS011;26844;53.686;-6.346;2022-12-07T14:33:41;21.15;;;18.98;;
41099;SDS011;26844;53.686;-6.346;2022-12-07T14:36:09;16.70;;;15.93;;
41099;SDS011;26844;53.686;-6.346;2022-12-07T14:38:35;17.88;;;17.08;;
41099;SDS011;26844;53.686;-6.346;2022-12-07T14:41:00;28.38;;;26.73;;
41099;SDS011;26844;53.686;-6.346;2022-12-07T14:43:58;27.92;;;26.58;;
41099;SDS011;26844;53.686;-6.346;2022-12-07T14:46:23;30.42;;;28.95;;
41099;SDS011;26844;53.686;-6.346;2022-12-07T14:48:48;29.23;;;27.80;;
41099;SDS011;26844;53.686;-6.346;2022-12-07T14:51:13;27.85;;;26.60;;
41099;SDS011;26844;53.686;-6.346;2022-12-07T14:53:40;35.55;;;33.90;;
41099;SDS011;26844;53.686;-6.346;2022-12-07T14:56:06;35.30;;;33.72;;
41099;SDS011;26844;53.686;-6.346;2022-12-07T14:58:32;30.08;;;28.70;;
41099;SDS011;26844;53.686;-6.346;2022-12-07T15:00:57;32.88;;;31.27;;
41099;SDS011;26844;53.686;-6.346;2022-12-07T15:03:23;28.25;;;26.65;;
41099;SDS011;26844;53.686;-6.346;2022-12-07T15:05:48;34.47;;;32.92;;
41099;SDS011;26844;53.686;-6.346;2022-12-07T15:08:13;35.10;;;32.90;;
41099;SDS011;26844;53.686;-6.346;2022-12-07T15:10:38;23.17;;;22.02;;
41099;SDS011;26844;53.686;-6.346;2022-12-07T15:13:05;38.05;;;36.00;;
41099;SDS011;26844;53.686;-6.346;2022-12-07T15:15:50;30.90;;;29.50;;
41099;SDS011;26844;53.686;-6.346;2022-12-07T15:18:16;34.35;;;32.65;;
41099;SDS011;26844;53.686;-6.346;2022-12-07T15:20:41;32.47;;;30.50;;
41099;SDS011;26844;53.686;-6.346;2022-12-07T15:23:07;29.05;;;27.52;;
41099;SDS011;26844;53.686;-6.346;2022-12-07T15:25:32;23.23;;;21.65;;
41099;SDS011;26844;53.686;-6.346;2022-12-07T15:27:57;26.65;;;25.40;;
41099;SDS011;26844;53.686;-6.346;2022-12-07T15:30:23;26.77;;;25.33;;
41099;SDS011;26844;53.686;-6.346;2022-12-07T15:32:51;30.83;;;29.42;;
41099;SDS011;26844;53.686;-6.346;2022-12-07T15:35:17;31.48;;;30.02;;
41099;SDS011;26844;53.686;-6.346;2022-12-07T15:37:42;18.52;;;17.42;;
41099;SDS011;26844;53.686;-6.346;2022-12-07T15:40:07;18.35;;;17.42;;
41099;SDS011;26844;53.686;-6.346;2022-12-07T15:42:33;18.00;;;17.20;;
41099;SDS011;26844;53.686;-6.346;2022-12-07T15:44:58;23.23;;;22.17;;
41099;SDS011;26844;53.686;-6.346;2022-12-07T15:47:30;24.08;;;22.75;;
41099;SDS011;26844;53.686;-6.346;2022-12-07T15:49:55;27.75;;;26.42;;
41099;SDS011;26844;53.686;-6.346;2022-12-07T15:52:20;33.35;;;31.85;;
41099;SDS011;26844;53.686;-6.346;2022-12-07T15:54:46;40.97;;;38.97;;
41099;SDS011;26844;53.686;-6.346;2022-12-07T15:57:12;54.60;;;52.10;;
41099;SDS011;26844;53.686;-6.346;2022-12-07T15:59:37;57.42;;;54.85;;
41099;SDS011;26844;53.686;-6.346;2022-12-07T16:02:02;67.53;;;64.53;;
41099;SDS011;26844;53.686;-6.346;2022-12-07T16:04:28;72.40;;;69.15;;
41099;SDS011;26844;53.686;-6.346;2022-12-07T16:06:57;76.03;;;72.55;;
41099;SDS011;26844;53.686;-6.346;2022-12-07T16:09:22;67.55;;;64.50;;